createdAt,value
2022-11-23T00:00:00.642Z,23.00
2022-11-23T00:05:03.640Z,23.00
2022-11-23T00:10:07.338Z,22.90
2022-11-23T00:15:14.435Z,22.80
2022-11-23T00:20:18.074Z,22.80
2022-11-23T00:25:21.098Z,22.70
2022-11-23T00:30:25.438Z,22.70
2022-11-23T00:35:28.464Z,22.60
2022-11-23T00:40:31.443Z,22.50
2022-11-23T00:45:35.781Z,22.50
2022-11-23T00:50:38.741Z,22.50
2022-11-23T00:55:41.735Z,22.40
2022-11-23T01:00:46.106Z,22.40
2022-11-23T01:05:49.088Z,22.30
2022-11-23T01:10:52.077Z,22.30
2022-11-23T01:15:56.378Z,22.20
2022-11-23T01:21:01.805Z,22.20
2022-11-23T01:26:09.598Z,22.20
2022-11-23T01:31:15.873Z,22.10
2022-11-23T01:36:21.530Z,22.10
2022-11-23T01:41:26.628Z,22.10
2022-11-23T01:46:31.052Z,22.00
2022-11-23T01:51:38.011Z,22.00
2022-11-23T01:56:45.439Z,22.00
2022-11-23T02:01:49.849Z,21.90
2022-11-23T02:06:54.152Z,21.80
2022-11-23T02:11:57.281Z,21.80
2022-11-23T02:17:01.670Z,21.80
2022-11-23T02:22:08.218Z,21.80
2022-11-23T02:27:12.750Z,21.70
2022-11-23T02:32:23.068Z,21.70
2022-11-23T02:37:26.802Z,21.60
2022-11-23T02:42:32.902Z,21.60
2022-11-23T02:47:35.917Z,21.60
2022-11-23T02:52:38.882Z,21.50
2022-11-23T02:57:43.267Z,21.50
2022-11-23T03:02:46.875Z,21.50
2022-11-23T03:07:49.935Z,21.40
2022-11-23T03:12:57.114Z,21.40
2022-11-23T03:18:00.118Z,21.40
2022-11-23T03:23:03.128Z,21.30
2022-11-23T03:28:07.666Z,21.30
2022-11-23T03:33:10.602Z,21.20
2022-11-23T03:38:13.808Z,21.20
2022-11-23T03:43:18.167Z,21.20
2022-11-23T03:48:21.198Z,21.10
2022-11-23T03:53:24.246Z,21.10
2022-11-23T03:58:28.681Z,21.10
2022-11-23T04:03:31.642Z,21.00
2022-11-23T04:08:34.610Z,21.00
2022-11-23T04:13:39.013Z,21.00
2022-11-23T04:18:42.020Z,21.00
2022-11-23T04:23:44.993Z,20.90
2022-11-23T04:28:49.312Z,20.90
2022-11-23T04:33:52.349Z,20.80
2022-11-23T04:38:55.791Z,20.80
2022-11-23T04:44:00.206Z,20.80
2022-11-23T04:49:03.209Z,20.80
2022-11-23T04:54:06.729Z,20.70
2022-11-23T04:59:11.158Z,20.70
2022-11-23T05:04:17.763Z,20.70
2022-11-23T05:09:21.194Z,20.60
2022-11-23T05:14:25.543Z,20.60
2022-11-23T05:19:28.480Z,20.60
2022-11-23T05:24:31.490Z,20.50
2022-11-23T05:29:35.926Z,20.60
2022-11-23T05:34:38.869Z,20.50
2022-11-23T05:39:41.845Z,20.50
2022-11-23T05:44:46.165Z,20.50
2022-11-23T05:49:49.360Z,20.50
2022-11-23T05:54:52.386Z,20.50
2022-11-23T05:59:56.700Z,20.50
2022-11-23T06:04:59.737Z,20.50
2022-11-23T06:10:03.402Z,20.40
2022-11-23T06:15:08.935Z,20.40
2022-11-23T06:20:12.419Z,20.40
2022-11-23T06:25:15.478Z,20.40
2022-11-23T06:30:19.956Z,20.40
2022-11-23T06:35:22.991Z,20.30
2022-11-23T06:40:25.952Z,20.30
2022-11-23T06:45:30.380Z,20.30
2022-11-23T06:50:33.557Z,20.30
2022-11-23T06:55:36.542Z,20.30
2022-11-23T07:00:40.837Z,20.20
2022-11-23T07:05:43.841Z,20.20
2022-11-23T07:10:46.929Z,20.20
2022-11-23T07:15:51.200Z,20.20
2022-11-23T07:20:54.425Z,20.20
2022-11-23T07:25:57.469Z,20.20
2022-11-23T07:31:01.841Z,20.20
2022-11-23T07:36:05.510Z,20.10
2022-11-23T07:41:08.822Z,20.10
2022-11-23T07:46:13.226Z,20.10
2022-11-23T07:51:19.494Z,20.10
2022-11-23T07:56:22.523Z,20.10
2022-11-23T08:01:27.069Z,20.10
2022-11-23T08:06:30.424Z,20.10
2022-11-23T08:11:33.401Z,20.10
2022-11-23T08:16:37.785Z,20.20
2022-11-23T08:21:40.761Z,20.20
2022-11-23T08:26:43.737Z,20.20
2022-11-23T08:31:48.162Z,20.30
2022-11-23T08:36:51.146Z,20.30
2022-11-23T08:41:54.142Z,20.30
2022-11-23T08:46:58.488Z,20.30
2022-11-23T08:52:01.519Z,20.30
2022-11-23T08:57:04.506Z,20.40
2022-11-23T09:02:11.236Z,20.30
2022-11-23T09:07:14.262Z,20.40
2022-11-23T09:12:17.380Z,20.40
2022-11-23T09:17:21.735Z,20.40
2022-11-23T09:22:24.669Z,20.50
2022-11-23T09:27:27.718Z,20.50
2022-11-23T09:32:33.388Z,20.50
2022-11-23T09:37:36.504Z,20.60
2022-11-23T09:43:01.054Z,20.60
2022-11-23T09:48:35.117Z,20.60
2022-11-23T09:53:43.830Z,20.60
2022-11-23T09:58:47.165Z,20.70
2022-11-23T10:03:52.054Z,20.70
2022-11-23T10:09:18.952Z,20.70
2022-11-23T10:14:44.706Z,20.70
2022-11-23T10:20:05.057Z,20.70
2022-11-23T10:25:16.563Z,20.70
2022-11-23T10:30:20.914Z,20.70
2022-11-23T10:35:29.777Z,20.70
2022-11-23T10:40:32.889Z,20.70
2022-11-23T10:45:35.902Z,20.70
2022-11-23T10:50:41.372Z,20.70
2022-11-23T10:55:50.214Z,20.70
2022-11-23T11:01:00.570Z,20.70
2022-11-23T11:06:10.187Z,20.70
2022-11-23T11:11:25.162Z,20.70
2022-11-23T11:16:31.033Z,20.70
2022-11-23T11:21:38.424Z,20.70
2022-11-23T11:26:50.048Z,20.70
2022-11-23T11:31:59.456Z,20.70
2022-11-23T11:37:12.090Z,20.60
2022-11-23T11:42:19.838Z,20.60
2022-11-23T11:47:31.197Z,20.60
2022-11-23T11:52:39.829Z,20.60
2022-11-23T11:57:48.541Z,20.50
2022-11-23T12:03:02.053Z,20.50
2022-11-23T12:08:12.562Z,20.50
2022-11-23T12:13:18.553Z,20.50
2022-11-23T12:18:51.369Z,20.40
2022-11-23T12:24:06.614Z,20.40
2022-11-23T12:29:31.586Z,20.40
2022-11-23T12:34:57.999Z,20.30
2022-11-23T12:40:26.578Z,20.30
2022-11-23T12:45:55.661Z,20.30
2022-11-23T12:51:09.498Z,20.30
2022-11-23T12:56:25.937Z,20.30
2022-11-23T13:01:32.644Z,20.30
2022-11-23T13:07:26.802Z,20.20
2022-11-23T13:12:44.709Z,20.20
2022-11-23T13:17:55.725Z,20.20
2022-11-23T13:23:01.453Z,20.20
2022-11-23T13:28:26.939Z,20.20
2022-11-23T13:33:38.710Z,20.20
2022-11-23T13:38:43.826Z,20.10
2022-11-23T13:43:48.330Z,20.10
2022-11-23T13:48:57.653Z,20.10
2022-11-23T13:54:03.515Z,20.10
2022-11-23T13:59:30.778Z,20.10
2022-11-23T14:04:35.870Z,20.00
2022-11-23T14:09:46.342Z,20.00
2022-11-23T14:14:57.472Z,20.00
2022-11-23T14:20:17.069Z,20.00
2022-11-23T14:25:40.408Z,20.20
2022-11-23T14:30:57.250Z,20.40
2022-11-23T14:36:12.226Z,20.40
2022-11-23T14:41:19.206Z,20.40
2022-11-23T14:46:25.479Z,20.40
2022-11-23T14:51:29.675Z,20.50
2022-11-23T14:56:35.140Z,20.60
2022-11-23T15:01:42.156Z,20.70
2022-11-23T15:06:48.759Z,20.80
2022-11-23T15:11:51.930Z,20.90
2022-11-23T15:16:56.365Z,20.90
2022-11-23T15:22:00.934Z,20.80
2022-11-23T15:27:12.146Z,20.90
2022-11-23T15:32:31.569Z,20.80
2022-11-23T15:37:42.130Z,20.90
2022-11-23T15:42:46.272Z,21.00
2022-11-23T15:47:50.669Z,21.10
2022-11-23T15:52:53.801Z,21.20
2022-11-23T15:57:57.895Z,21.20
2022-11-23T16:03:28.179Z,21.20
2022-11-23T16:08:35.436Z,21.30
2022-11-23T16:13:40.308Z,21.20
2022-11-23T16:18:47.881Z,21.20
2022-11-23T16:23:54.205Z,21.20
2022-11-23T16:28:58.735Z,21.10
2022-11-23T16:34:03.131Z,21.10
2022-11-23T16:39:06.124Z,21.00
2022-11-23T16:44:09.150Z,21.00
2022-11-23T16:49:18.119Z,21.10
2022-11-23T16:54:24.780Z,21.10
2022-11-23T16:59:28.493Z,21.20
2022-11-23T17:04:33.158Z,21.40
2022-11-23T17:09:36.591Z,21.70
2022-11-23T17:14:40.539Z,22.10
2022-11-23T17:19:48.096Z,22.60
2022-11-23T17:24:52.686Z,22.70
2022-11-23T17:29:59.662Z,23.00
2022-11-23T17:35:04.261Z,23.30
2022-11-23T17:40:14.141Z,23.60
2022-11-23T17:45:17.340Z,23.80
2022-11-23T17:50:21.765Z,23.90
2022-11-23T17:55:25.134Z,24.00
2022-11-23T18:00:30.329Z,24.10
2022-11-23T18:05:34.728Z,24.10
2022-11-23T18:10:37.757Z,24.20
2022-11-23T18:15:40.734Z,24.20
2022-11-23T18:20:45.126Z,24.20
2022-11-23T18:25:48.285Z,24.10
2022-11-23T18:30:51.275Z,24.10
2022-11-23T18:35:58.169Z,24.10
2022-11-23T18:41:05.288Z,24.00
2022-11-23T18:46:10.208Z,23.90
2022-11-23T18:51:14.653Z,23.90
2022-11-23T18:56:18.013Z,23.80
2022-11-23T19:01:23.145Z,23.80
2022-11-23T19:06:27.578Z,23.70
2022-11-23T19:11:30.578Z,23.60
2022-11-23T19:16:33.607Z,23.50
2022-11-23T19:21:37.995Z,23.50
2022-11-23T19:26:40.977Z,23.40
2022-11-23T19:31:43.998Z,23.30
2022-11-23T19:36:48.422Z,23.20
2022-11-23T19:41:51.431Z,23.20
2022-11-23T19:46:54.573Z,23.10
2022-11-23T19:51:59.045Z,23.10
2022-11-23T19:57:02.130Z,23.00
2022-11-23T20:02:05.201Z,22.90
2022-11-23T20:07:12.367Z,22.80
2022-11-23T20:12:15.483Z,22.80
2022-11-23T20:17:18.686Z,22.70
2022-11-23T20:22:23.049Z,22.60
2022-11-23T20:27:26.095Z,22.60
2022-11-23T20:32:29.091Z,22.50
2022-11-23T20:37:35.158Z,22.50
2022-11-23T20:42:38.141Z,22.40
2022-11-23T20:47:41.603Z,22.30
2022-11-23T20:52:46.065Z,22.30
2022-11-23T20:57:49.089Z,22.20
2022-11-23T21:02:52.985Z,22.20
2022-11-23T21:07:57.504Z,22.10
2022-11-23T21:13:17.785Z,22.10
2022-11-23T21:18:20.795Z,22.00
2022-11-23T21:23:25.279Z,22.00
2022-11-23T21:28:28.242Z,22.00
2022-11-23T21:33:31.283Z,22.00
2022-11-23T21:38:38.508Z,22.10
2022-11-23T21:43:41.540Z,22.30
2022-11-23T21:48:44.713Z,22.60
2022-11-23T21:53:49.276Z,22.90
2022-11-23T21:58:52.365Z,23.10
2022-11-23T22:03:57.226Z,23.30
2022-11-23T22:09:01.667Z,23.40
2022-11-23T22:14:07.272Z,23.50
2022-11-23T22:19:12.198Z,23.60
2022-11-23T22:24:18.274Z,23.60
2022-11-23T22:29:22.053Z,23.60
2022-11-23T22:34:26.172Z,23.70
2022-11-23T22:39:30.796Z,23.70
2022-11-23T22:44:34.265Z,23.80
2022-11-23T22:49:38.191Z,23.80
2022-11-23T22:54:42.502Z,23.90
2022-11-23T22:59:45.479Z,23.90
2022-11-23T23:04:48.578Z,23.80
2022-11-23T23:09:53.469Z,23.70
2022-11-23T23:14:56.593Z,23.70
2022-11-23T23:19:59.531Z,23.70
2022-11-23T23:25:07.632Z,23.50
2022-11-23T23:30:11.781Z,23.50
2022-11-23T23:35:15.151Z,23.40
2022-11-23T23:40:19.693Z,23.40
2022-11-23T23:45:22.884Z,23.30
2022-11-23T23:50:25.919Z,23.20
2022-11-23T23:55:30.296Z,23.20
